ZW-0032 weather

Chewonde Airport
Matabeleland North Province, Zimbabwe

Public forecast

Using degrees Celsius for public forecast. Weather courtesy of forecast.io.

METAR (pilot weather report)

Report is more than 6 hours old.

Closest report is Hwange National Park Airport, 81.8 nm (151.6 km) WSW. Retrieved 2019/07/19 06:00 UTC (20 hours ago):

FVWN 190600Z 24004KT CAVOK 11/03 Q1024

TAF (pilot weather forecast)

Forecast is more than 12 hours old.

Closest forecast is Hwange National Park Airport, 81.8 nm (151.6 km) WSW. Retrieved 2014/01/24 05:00 UTC (5 years ago):

TAF FVWN 240400Z 2405/2418 VRB03KT CAVOK BECMG 2408/2410 9999 SCT030TCU FEW025CB PROB30 TEMPO 2410/2414 -TSRA